Time;durP1;ratioP1;P1;durP2;ratioP2;P2;SDS_P1;SDS_P2;PMS_P1;PMS_P2;Temp;Humidity;BMP_temperature;BMP_pressure;BME280_temperature;BME280_humidity;BME280_pressure;Samples;Min_cycle;Max_cycle;Signal;HPM_P1;HPM_P2
2021/01/30 00:00:49;;;;;;;17.95;9.75;;;-1.70;99.90;;;;;;5073705;28;20100;-79
2021/01/30 00:03:15;;;;;;;17.33;10.45;;;-1.70;99.90;;;;;;5073670;28;20055;-78
2021/01/30 00:05:41;;;;;;;21.60;11.32;;;-1.70;99.90;;;;;;5083779;28;20029;-79
2021/01/30 00:08:07;;;;;;;17.88;10.55;;;-1.70;99.90;;;;;;5093770;28;20103;-79
2021/01/30 00:10:34;;;;;;;19.90;10.32;;;-1.80;99.90;;;;;;5093688;28;20020;-79
2021/01/30 00:12:59;;;;;;;22.35;12.55;;;-1.80;99.90;;;;;;5093424;28;20027;-78
2021/01/30 00:15:26;;;;;;;17.58;11.50;;;-1.90;99.90;;;;;;5086179;28;20032;-78
2021/01/30 00:17:54;;;;;;;23.02;11.73;;;-1.90;99.90;;;;;;5071884;28;20048;-79
2021/01/30 00:20:22;;;;;;;16.48;10.50;;;-2.00;99.90;;;;;;5071843;28;20044;-78
2021/01/30 00:22:50;;;;;;;21.10;11.82;;;-2.00;99.90;;;;;;5073142;28;20024;-79
2021/01/30 00:25:18;;;;;;;21.52;11.52;;;-2.10;99.90;;;;;;5074051;28;20020;-79
2021/01/30 00:27:43;;;;;;;19.75;11.10;;;-2.10;99.90;;;;;;5092107;28;20089;-78
2021/01/30 00:30:15;;;;;;;22.10;12.10;;;-2.20;99.90;;;;;;5093293;28;20025;-78
2021/01/30 00:32:41;;;;;;;21.02;11.63;;;-2.20;99.90;;;;;;5093173;28;20029;-78
2021/01/30 00:35:07;;;;;;;17.88;10.65;;;-2.30;99.90;;;;;;5086979;28;20032;-78
2021/01/30 00:37:32;;;;;;;24.45;11.23;;;-2.30;99.90;;;;;;5071173;28;20408;-79
2021/01/30 00:39:59;;;;;;;16.38;9.93;;;-2.40;99.90;;;;;;5072928;28;20083;-79
2021/01/30 00:42:25;;;;;;;20.00;10.13;;;-2.40;99.90;;;;;;5071474;28;20131;-78
2021/01/30 00:44:52;;;;;;;18.30;9.45;;;-2.40;99.90;;;;;;5071744;28;20016;-78
2021/01/30 00:47:18;;;;;;;21.08;9.68;;;-2.50;99.90;;;;;;5091605;28;20387;-78
2021/01/30 00:49:45;;;;;;;19.73;10.57;;;-2.50;99.90;;;;;;5091476;28;20028;-78
2021/01/30 00:52:13;;;;;;;17.27;10.10;;;-2.60;99.90;;;;;;5092953;28;20020;-78
2021/01/30 00:54:39;;;;;;;25.83;14.18;;;-2.60;99.90;;;;;;5092663;28;20024;-78
2021/01/30 00:57:04;;;;;;;20.98;12.18;;;-2.60;99.90;;;;;;5076066;28;20385;-78
2021/01/30 00:59:30;;;;;;;21.73;12.00;;;-2.70;99.90;;;;;;5071081;28;20572;-78
2021/01/30 01:01:55;;;;;;;21.35;11.38;;;-2.70;99.90;;;;;;5072438;28;20024;-78
2021/01/30 01:04:21;;;;;;;20.52;10.25;;;-2.70;99.90;;;;;;5072203;28;20031;-78
2021/01/30 01:06:48;;;;;;;15.63;9.18;;;-2.70;99.90;;;;;;5091995;28;20032;-78
2021/01/30 01:09:15;;;;;;;21.52;11.60;;;-2.70;99.90;;;;;;5092664;28;20388;-78
2021/01/30 01:11:43;;;;;;;22.90;10.90;;;-2.60;99.90;;;;;;5092433;28;20028;-78
2021/01/30 01:14:08;;;;;;;17.90;9.85;;;-2.50;99.90;;;;;;5091989;28;20035;-78
2021/01/30 01:16:34;;;;;;;23.58;9.50;;;-2.50;99.90;;;;;;5077442;28;20062;-78
2021/01/30 01:19:00;;;;;;;18.23;10.05;;;-2.50;99.90;;;;;;5072072;28;20028;-78
2021/01/30 01:21:26;;;;;;;21.48;11.25;;;-2.50;99.90;;;;;;5072133;28;20104;-78
2021/01/30 01:23:52;;;;;;;15.95;9.75;;;-2.40;99.90;;;;;;5070601;28;20115;-79
2021/01/30 01:26:18;;;;;;;18.73;11.20;;;-2.40;99.90;;;;;;5080216;28;20565;-79
2021/01/30 01:28:45;;;;;;;17.65;9.57;;;-2.40;99.90;;;;;;5090892;28;20081;-79
2021/01/30 01:31:11;;;;;;;22.35;10.43;;;-2.40;99.90;;;;;;5092189;28;20073;-78
2021/01/30 01:33:38;;;;;;;18.63;10.23;;;-2.40;99.90;;;;;;5091965;28;20489;-78
2021/01/30 01:36:05;;;;;;;15.32;9.25;;;-2.40;99.90;;;;;;5078214;28;20386;-78
2021/01/30 01:38:30;;;;;;;18.73;9.45;;;-2.40;99.90;;;;;;5071795;28;20025;-78
2021/01/30 01:40:56;;;;;;;20.45;9.82;;;-2.40;99.90;;;;;;5071823;28;20040;-78
2021/01/30 01:43:24;;;;;;;21.13;10.68;;;-2.40;99.90;;;;;;5071747;28;20096;-78
2021/01/30 01:46:15;;;;;;;15.23;8.63;;;-2.30;99.90;;;;;;5079011;28;20020;-78
2021/01/30 01:48:47;;;;;;;16.02;8.30;;;-2.20;99.90;;;;;;5091043;28;20028;-78
2021/01/30 01:51:27;;;;;;;15.55;8.43;;;-2.10;99.90;;;;;;5091798;28;20066;-79
2021/01/30 01:53:53;;;;;;;14.60;7.85;;;-2.00;99.90;;;;;;5091914;28;20021;-78
2021/01/30 01:56:22;;;;;;;13.93;8.25;;;-1.90;99.90;;;;;;5081631;28;20099;-78
2021/01/30 01:58:51;;;;;;;16.85;8.93;;;-1.80;99.90;;;;;;5071413;28;20033;-79
2021/01/30 02:01:18;;;;;;;16.17;8.43;;;-1.80;99.90;;;;;;5071724;28;20021;-78
2021/01/30 02:03:50;;;;;;;13.48;8.52;;;-1.70;99.90;;;;;;5070226;28;20491;-78
2021/01/30 02:06:15;;;;;;;13.77;7.93;;;-1.60;99.90;;;;;;5086636;28;20090;-78
2021/01/30 02:08:41;;;;;;;14.75;8.57;;;-1.60;99.90;;;;;;5091768;28;20032;-78
2021/01/30 02:11:07;;;;;;;18.45;8.23;;;-1.50;99.90;;;;;;5091725;28;20036;-78
2021/01/30 02:13:45;;;;;;;14.95;8.13;;;-1.50;99.90;;;;;;5091795;28;20024;-78
2021/01/30 02:16:19;;;;;;;12.73;7.47;;;-1.40;99.90;;;;;;5078694;28;20032;-78
2021/01/30 02:19:15;;;;;;;12.73;7.43;;;-1.40;99.90;;;;;;5071358;28;20035;-78
2021/01/30 02:21:44;;;;;;;13.80;7.38;;;-1.40;99.90;;;;;;5071483;28;20113;-78
2021/01/30 02:24:21;;;;;;;16.73;7.97;;;-1.40;99.90;;;;;;5069886;28;20021;-78
2021/01/30 02:27:09;;;;;;;12.73;7.00;;;-1.40;99.90;;;;;;5084913;28;20028;-78
2021/01/30 02:30:12;;;;;;;11.18;6.63;;;-1.40;99.90;;;;;;5090432;28;20021;-78
2021/01/30 02:32:41;;;;;;;11.73;6.65;;;-1.30;99.90;;;;;;5090386;28;20050;-78
2021/01/30 02:35:30;;;;;;;10.32;6.38;;;-1.30;99.90;;;;;;5085530;28;20078;-78
2021/01/30 02:38:01;;;;;;;12.70;7.22;;;-1.30;99.90;;;;;;5071400;28;20042;-78
2021/01/30 02:40:34;;;;;;;14.90;7.13;;;-1.30;99.90;;;;;;5071294;28;20082;-78
2021/01/30 02:43:08;;;;;;;12.95;6.55;;;-1.30;99.90;;;;;;5071293;28;20055;-78
2021/01/30 02:45:38;;;;;;;13.98;6.00;;;-1.40;99.90;;;;;;5077302;28;20048;-78
2021/01/30 02:48:16;;;;;;;9.70;6.35;;;-1.50;99.90;;;;;;5091378;28;20016;-78
2021/01/30 02:50:45;;;;;;;14.98;7.43;;;-1.40;99.90;;;;;;5089922;28;20027;-78
2021/01/30 02:53:15;;;;;;;13.57;7.80;;;-1.50;99.90;;;;;;5090050;28;20142;-78
2021/01/30 02:55:41;;;;;;;13.45;7.35;;;-1.50;99.90;;;;;;5087164;28;20020;-78
2021/01/30 02:58:08;;;;;;;13.77;6.70;;;-1.50;99.90;;;;;;5071070;28;20047;-78
2021/01/30 03:00:34;;;;;;;12.45;7.72;;;-1.60;99.90;;;;;;5072410;28;20020;-78
2021/01/30 03:03:00;;;;;;;11.93;6.90;;;-1.60;99.90;;;;;;5074652;28;20025;-78
2021/01/30 03:05:26;;;;;;;10.70;6.65;;;-1.60;99.90;;;;;;5082542;28;20056;-78
2021/01/30 03:08:15;;;;;;;13.63;6.55;;;-1.60;99.90;;;;;;5094691;28;20048;-78
2021/01/30 03:11:13;;;;;;;14.60;6.60;;;-1.60;99.90;;;;;;5093597;28;20472;-79
2021/01/30 03:14:02;;;;;;;10.95;6.22;;;-1.60;99.90;;;;;;5094694;28;20032;-78
2021/01/30 03:16:34;;;;;;;12.15;5.95;;;-1.70;99.90;;;;;;5072333;28;20087;-78
2021/01/30 03:19:11;;;;;;;10.25;6.25;;;-1.70;99.90;;;;;;5074482;28;20021;-78
2021/01/30 03:21:40;;;;;;;11.13;6.78;;;-1.90;99.90;;;;;;5092381;28;20050;-78
2021/01/30 03:24:06;;;;;;;12.25;6.47;;;-2.00;99.90;;;;;;5094348;28;20024;-78
2021/01/30 03:26:37;;;;;;;9.45;6.30;;;-2.00;99.90;;;;;;5082715;28;20108;-78
2021/01/30 03:29:03;;;;;;;10.20;6.13;;;-2.00;99.90;;;;;;5074405;28;20077;-78
2021/01/30 03:31:28;;;;;;;19.73;7.60;;;-2.00;99.90;;;;;;5073251;28;20024;-78
2021/01/30 03:33:54;;;;;;;16.45;6.20;;;-2.00;99.90;;;;;;5071827;28;20029;-78
2021/01/30 03:36:19;;;;;;;14.32;5.72;;;-2.00;99.90;;;;;;5089621;28;20036;-78
2021/01/30 03:38:45;;;;;;;17.08;5.43;;;-1.90;99.90;;;;;;5094314;28;20016;-78
2021/01/30 03:41:11;;;;;;;13.02;5.93;;;-2.00;99.90;;;;;;5094329;28;20629;-78
2021/01/30 03:43:36;;;;;;;15.25;6.53;;;-2.00;99.90;;;;;;5094152;28;20092;-78
2021/01/30 03:46:02;;;;;;;12.80;6.07;;;-2.10;99.90;;;;;;5083459;28;20150;-78
2021/01/30 03:48:27;;;;;;;8.80;4.95;;;-2.10;99.90;;;;;;5073932;28;20071;-78
2021/01/30 03:50:53;;;;;;;11.50;5.72;;;-2.10;99.90;;;;;;5073905;28;20554;-78
2021/01/30 03:53:19;;;;;;;7.93;5.00;;;-2.20;99.90;;;;;;5073798;28;20024;-78
2021/01/30 03:55:44;;;;;;;13.57;6.10;;;-2.20;99.90;;;;;;5078379;28;20031;-78
2021/01/30 03:58:10;;;;;;;12.88;5.68;;;-2.10;99.90;;;;;;5093895;28;20031;-78
2021/01/30 04:00:36;;;;;;;10.82;5.07;;;-2.20;99.90;;;;;;5090741;28;20384;-78
2021/01/30 04:03:02;;;;;;;10.38;5.82;;;-2.20;99.90;;;;;;5073554;28;20115;-78
2021/01/30 04:05:28;;;;;;;10.05;5.75;;;-2.20;99.90;;;;;;5080320;28;20029;-78
2021/01/30 04:07:56;;;;;;;13.93;5.85;;;-2.30;99.90;;;;;;5093841;28;20028;-78
2021/01/30 04:10:31;;;;;;;10.10;5.55;;;-2.30;99.90;;;;;;5093795;28;20039;-78
2021/01/30 04:12:58;;;;;;;11.98;6.55;;;-2.50;99.90;;;;;;5074262;28;20451;-78
2021/01/30 04:15:29;;;;;;;15.27;5.53;;;-2.50;99.90;;;;;;5071788;28;20044;-78
2021/01/30 04:17:55;;;;;;;9.88;4.90;;;-2.60;99.90;;;;;;5072194;28;20032;-78
2021/01/30 04:20:21;;;;;;;9.25;5.43;;;-2.70;99.90;;;;;;5080491;28;20427;-78
2021/01/30 04:22:47;;;;;;;7.60;5.05;;;-2.80;99.90;;;;;;5093409;28;20024;-78
2021/01/30 04:25:16;;;;;;;12.02;5.32;;;-2.80;99.90;;;;;;5093338;28;20016;-78
2021/01/30 04:27:42;;;;;;;11.63;5.90;;;-3.00;99.90;;;;;;5092236;28;20050;-78
2021/01/30 04:30:10;;;;;;;9.32;5.38;;;-3.10;99.90;;;;;;5090329;28;20020;-78
2021/01/30 04:32:36;;;;;;;8.82;5.18;;;-3.10;99.90;;;;;;5071746;28;20029;-78
2021/01/30 04:35:01;;;;;;;9.85;6.07;;;-3.30;99.90;;;;;;5072808;28;20032;-78
2021/01/30 04:37:27;;;;;;;14.73;5.85;;;-3.40;99.90;;;;;;5072979;28;20455;-78
2021/01/30 04:39:52;;;;;;;11.90;6.18;;;-3.30;99.90;;;;;;5071652;28;20025;-78
2021/01/30 04:42:41;;;;;;;6.95;4.53;;;-3.40;99.90;;;;;;5090630;28;20024;-78
2021/01/30 04:45:07;;;;;;;12.55;5.03;;;-3.50;99.90;;;;;;5089666;28;20036;-78
2021/01/30 04:47:56;;;;;;;11.98;5.75;;;-3.60;99.90;;;;;;5093076;28;20497;-78
2021/01/30 04:50:35;;;;;;;10.18;5.80;;;-3.70;99.90;;;;;;5085239;28;20109;-78
2021/01/30 04:53:13;;;;;;;13.23;5.20;;;-3.70;99.90;;;;;;5072535;28;20020;-78
2021/01/30 04:56:02;;;;;;;9.20;5.50;;;-3.80;99.90;;;;;;5072410;28;20060;-78
2021/01/30 04:59:04;;;;;;;7.25;4.22;;;-3.80;99.90;;;;;;5071302;28;20048;-78
2021/01/30 05:02:08;;;;;;;9.75;5.75;;;-3.90;99.90;;;;;;5064096;28;20044;-78
2021/01/30 05:04:38;;;;;;;10.68;4.80;;;-4.00;99.90;;;;;;5072194;28;20044;-78
2021/01/30 05:07:10;;;;;;;11.15;5.93;;;-4.20;99.90;;;;;;5076283;28;20078;-78
2021/01/30 05:09:56;;;;;;;10.50;5.05;;;-4.20;99.90;;;;;;5092720;28;20038;-78
2021/01/30 05:12:40;;;;;;;12.95;5.72;;;-4.30;99.90;;;;;;5091361;28;20036;-78
2021/01/30 05:15:36;;;;;;;10.40;4.90;;;-4.40;99.90;;;;;;5091014;28;20050;-78
2021/01/30 05:18:27;;;;;;;15.63;5.63;;;-4.40;99.90;;;;;;5081495;28;20032;-78
2021/01/30 05:21:04;;;;;;;11.25;5.22;;;-4.50;99.90;;;;;;5072101;28;20032;-78
2021/01/30 05:23:33;;;;;;;9.60;5.55;;;-4.40;99.90;;;;;;5071861;28;20028;-78
2021/01/30 05:26:20;;;;;;;14.68;5.00;;;-4.50;99.90;;;;;;5071898;28;20114;-78
2021/01/30 05:29:31;;;;;;;9.93;5.32;;;-4.40;99.90;;;;;;5085686;28;20027;-78
2021/01/30 05:32:02;;;;;;;10.68;5.45;;;-4.40;99.90;;;;;;5068489;28;20488;-78
2021/01/30 05:34:37;;;;;;;17.50;6.95;;;-4.60;99.90;;;;;;5091641;28;20035;-78
2021/01/30 05:37:11;;;;;;;11.73;5.47;;;-4.70;99.90;;;;;;5071993;28;20028;-78
2021/01/30 05:40:14;;;;;;;13.82;5.68;;;-4.70;99.90;;;;;;5071987;28;20020;-78
2021/01/30 05:43:01;;;;;;;8.50;5.32;;;-4.70;99.90;;;;;;5070660;28;20032;-78
2021/01/30 05:45:45;;;;;;;12.13;4.85;;;-4.70;99.90;;;;;;5076749;28;20499;-78
2021/01/30 05:48:12;;;;;;;;;;;-4.80;99.90;;;;;;5092460;28;20024;-78
2021/01/30 05:50:50;;;;;;;8.27;4.43;;;-4.90;99.90;;;;;;5091645;28;19943;-78
2021/01/30 05:53:20;;;;;;;11.90;5.47;;;-4.90;99.90;;;;;;5091942;28;20428;-78
2021/01/30 05:55:46;;;;;;;13.18;6.18;;;-4.90;99.90;;;;;;5086581;28;20507;-78
2021/01/30 05:58:14;;;;;;;9.15;4.85;;;-5.00;99.90;;;;;;5071640;28;20036;-78
2021/01/30 06:00:40;;;;;;;9.70;5.50;;;-5.00;99.90;;;;;;5071702;28;20033;-78
2021/01/30 06:03:11;;;;;;;11.75;4.65;;;-5.20;99.90;;;;;;5071693;28;20107;-78
2021/01/30 06:05:40;;;;;;;10.85;5.82;;;-5.40;99.90;;;;;;5080643;28;20440;-78
2021/01/30 06:08:14;;;;;;;11.07;4.95;;;-5.60;99.90;;;;;;5091720;28;20078;-78
2021/01/30 06:10:41;;;;;;;9.48;5.22;;;-5.70;99.90;;;;;;5091803;28;20020;-79
2021/01/30 06:13:19;;;;;;;7.68;4.35;;;-5.90;99.90;;;;;;5091700;28;20052;-78
2021/01/30 06:15:51;;;;;;;13.25;5.38;;;-6.00;99.90;;;;;;5090825;28;20112;-78
2021/01/30 06:18:39;;;;;;;12.25;5.95;;;-6.00;99.90;;;;;;5090407;28;20059;-78
2021/01/30 06:21:19;;;;;;;9.55;5.30;;;-5.80;99.90;;;;;;5089875;28;20048;-78
2021/01/30 06:24:03;;;;;;;11.82;6.20;;;-5.60;99.90;;;;;;5091378;28;20020;-78
2021/01/30 06:26:29;;;;;;;9.93;5.10;;;-5.60;99.90;;;;;;5079372;28;20024;-78
2021/01/30 06:29:01;;;;;;;13.07;5.78;;;-5.70;99.90;;;;;;5071390;28;20488;-78
2021/01/30 06:31:33;;;;;;;10.82;5.60;;;-5.90;99.90;;;;;;5070214;28;20036;-78
2021/01/30 06:34:28;;;;;;;12.50;6.20;;;-6.10;99.90;;;;;;5069855;28;20644;-78
2021/01/30 06:36:54;;;;;;;18.58;6.82;;;-6.20;99.90;;;;;;5073689;28;20082;-78
2021/01/30 06:39:29;;;;;;;23.88;8.02;;;-6.30;99.90;;;;;;5075154;28;20021;-78
2021/01/30 06:42:01;;;;;;;15.80;7.55;;;-6.40;99.90;;;;;;5074217;28;20395;-79
2021/01/30 06:44:30;;;;;;;13.63;5.80;;;-6.50;99.90;;;;;;5074935;28;20404;-78
2021/01/30 06:47:14;;;;;;;11.70;6.00;;;-6.60;99.90;;;;;;5076214;28;20024;-79
2021/01/30 06:49:45;;;;;;;11.48;5.78;;;-6.60;99.90;;;;;;5076258;28;20024;-78
2021/01/30 06:52:26;;;;;;;10.27;4.63;;;-6.70;99.90;;;;;;5094062;28;20024;-78
2021/01/30 06:55:04;;;;;;;9.50;4.65;;;-6.80;99.90;;;;;;5095036;28;20028;-78
2021/01/30 06:57:32;;;;;;;8.85;4.47;;;-6.90;99.90;;;;;;5076791;28;20033;-78
2021/01/30 07:00:31;;;;;;;11.73;4.75;;;-6.90;99.90;;;;;;5073452;28;20064;-78
2021/01/30 07:03:18;;;;;;;18.27;7.78;;;-7.00;99.90;;;;;;5070319;28;20129;-78
2021/01/30 07:06:00;;;;;;;15.27;7.65;;;-7.20;99.90;;;;;;5083451;28;20048;-79
2021/01/30 07:08:50;;;;;;;14.52;6.43;;;-7.20;99.90;;;;;;5093589;28;20017;-78
2021/01/30 07:11:39;;;;;;;11.25;5.07;;;-7.20;99.90;;;;;;5093602;28;20522;-78
2021/01/30 07:14:30;;;;;;;9.18;4.60;;;-7.20;99.90;;;;;;5094536;28;20068;-78
2021/01/30 07:17:09;;;;;;;11.73;5.28;;;-7.20;99.90;;;;;;5077082;28;20097;-78
2021/01/30 07:19:53;;;;;;;11.35;5.57;;;-7.20;99.90;;;;;;5074386;28;20020;-79
2021/01/30 07:22:31;;;;;;;15.07;5.60;;;-7.20;99.90;;;;;;5074501;28;20031;-78
2021/01/30 07:25:07;;;;;;;12.45;6.47;;;-7.20;99.90;;;;;;5073001;28;20024;-78
2021/01/30 07:27:41;;;;;;;12.70;5.80;;;-7.20;99.90;;;;;;5093971;28;20107;-78
2021/01/30 07:30:14;;;;;;;13.57;5.57;;;-7.20;99.90;;;;;;5094729;28;20099;-78
2021/01/30 07:32:52;;;;;;;13.15;5.85;;;-7.10;99.90;;;;;;5094422;28;20484;-78
2021/01/30 07:35:30;;;;;;;11.45;5.78;;;-7.10;99.90;;;;;;5085920;28;20064;-77
2021/01/30 07:38:15;;;;;;;7.35;4.00;;;-7.10;99.90;;;;;;5074259;28;20016;-77
2021/01/30 07:40:56;;;;;;;9.05;5.45;;;-7.20;99.90;;;;;;5072907;28;20419;-77
2021/01/30 07:43:43;;;;;;;8.60;4.25;;;-7.10;99.90;;;;;;5074081;28;20109;-76
2021/01/30 07:46:19;;;;;;;10.40;4.70;;;-7.20;99.90;;;;;;5083514;28;20024;-77
2021/01/30 07:48:54;;;;;;;11.23;5.63;;;-7.20;99.90;;;;;;5094207;28;20031;-76
2021/01/30 07:51:24;;;;;;;10.13;5.55;;;-7.30;99.90;;;;;;5092676;28;20040;-77
2021/01/30 07:53:50;;;;;;;14.45;6.07;;;-7.40;99.90;;;;;;5092707;28;20055;-77
2021/01/30 07:56:19;;;;;;;13.82;6.70;;;-7.30;99.90;;;;;;5083672;28;20081;-76
2021/01/30 07:58:55;;;;;;;18.80;6.45;;;-7.30;99.90;;;;;;5073657;28;20077;-76
2021/01/30 08:01:27;;;;;;;14.35;6.32;;;-7.20;99.90;;;;;;5079256;28;20036;-76
2021/01/30 08:04:24;;;;;;;10.05;5.68;;;-7.10;99.90;;;;;;5093280;28;20020;-76
2021/01/30 08:07:22;;;;;;;16.50;6.40;;;-7.00;99.90;;;;;;5071951;28;20028;-76
2021/01/30 08:10:03;;;;;;;15.30;5.93;;;-6.80;99.90;;;;;;5073496;28;20485;-77
2021/01/30 08:12:48;;;;;;;13.82;6.47;;;-6.70;99.90;;;;;;5074264;28;20372;-77
2021/01/30 08:15:31;;;;;;;20.95;8.40;;;-6.50;99.90;;;;;;5093349;28;20028;-77
2021/01/30 08:18:07;;;;;;;20.50;10.13;;;-6.20;99.90;;;;;;5093565;28;20032;-76
2021/01/30 08:20:44;;;;;;;16.48;8.13;;;-5.90;99.90;;;;;;5084494;28;20040;-77
2021/01/30 08:23:30;;;;;;;19.83;8.88;;;-5.70;99.90;;;;;;5073068;28;20063;-77
2021/01/30 08:26:01;;;;;;;15.15;7.03;;;-5.60;99.90;;;;;;5073167;28;20473;-77
2021/01/30 08:28:42;;;;;;;15.52;7.53;;;-5.40;99.90;;;;;;5071946;28;20090;-78
2021/01/30 08:31:27;;;;;;;12.73;6.25;;;-5.20;99.90;;;;;;5083390;28;20089;-78
2021/01/30 08:34:02;;;;;;;13.13;6.55;;;-5.00;99.90;;;;;;5087271;28;20028;-78
2021/01/30 08:36:34;;;;;;;18.75;8.50;;;-4.90;99.90;;;;;;5090598;28;20496;-78
2021/01/30 08:39:36;;;;;;;15.02;7.63;;;-4.70;99.90;;;;;;5100039;28;20082;-79
2021/01/30 08:42:06;;;;;;;19.13;8.40;;;-4.60;99.90;;;;;;5061085;28;20217;-78
2021/01/30 08:44:48;;;;;;;29.83;13.32;;;-4.60;99.90;;;;;;5072417;28;20024;-78
2021/01/30 08:47:22;;;;;;;28.55;11.05;;;-4.60;99.90;;;;;;5072557;28;20025;-78
2021/01/30 08:50:07;;;;;;;18.60;8.50;;;-4.40;99.90;;;;;;5072733;28;20028;-78
2021/01/30 08:52:35;;;;;;;17.85;9.05;;;-4.30;99.90;;;;;;5086641;28;20081;-79
2021/01/30 08:55:23;;;;;;;14.10;8.57;;;-4.20;99.90;;;;;;5092894;28;20388;-77
2021/01/30 08:57:49;;;;;;;14.38;8.02;;;-4.00;99.90;;;;;;5074577;28;20043;-79
2021/01/30 09:00:49;;;;;;;11.68;7.15;;;-3.90;99.90;;;;;;5072151;28;20488;-79
2021/01/30 09:03:49;;;;;;;16.60;6.82;;;-3.70;99.90;;;;;;5070438;28;20082;-79
2021/01/30 09:06:40;;;;;;;12.10;6.43;;;-3.60;99.90;;;;;;5088003;28;20064;-79
2021/01/30 09:09:12;;;;;;;14.27;7.15;;;-3.50;99.90;;;;;;5084788;28;20020;-79
2021/01/30 09:11:49;;;;;;;11.75;6.15;;;-3.50;99.90;;;;;;5107251;28;20110;-78
2021/01/30 09:14:14;;;;;;;12.07;6.93;;;-3.40;99.90;;;;;;5111209;28;20111;-78
2021/01/30 09:17:02;;;;;;;14.13;6.88;;;-3.30;99.90;;;;;;5111671;28;20110;-79
2021/01/30 09:19:54;;;;;;;10.93;5.72;;;-3.30;99.90;;;;;;5071323;28;20028;-78
2021/01/30 09:22:22;;;;;;;11.55;6.38;;;-3.20;99.90;;;;;;5080800;28;20470;-78
2021/01/30 09:24:56;;;;;;;11.43;7.25;;;-3.10;99.90;;;;;;5072793;28;20100;-78
2021/01/30 09:27:28;;;;;;;10.57;6.63;;;-3.00;99.90;;;;;;5071116;28;20050;-78
2021/01/30 09:29:57;;;;;;;11.30;6.78;;;-2.90;99.90;;;;;;5072239;28;20029;-79
2021/01/30 09:32:43;;;;;;;13.25;7.85;;;-2.80;99.90;;;;;;5071924;28;20488;-78
2021/01/30 09:35:32;;;;;;;12.75;7.18;;;-2.70;99.90;;;;;;5071664;28;20111;-79
2021/01/30 09:38:16;;;;;;;14.13;7.47;;;-2.50;99.90;;;;;;5071629;28;20075;-79
2021/01/30 09:40:41;;;;;;;23.08;9.70;;;-2.50;99.90;;;;;;5070647;28;20036;-79
2021/01/30 09:43:08;;;;;;;17.58;9.35;;;-2.40;99.90;;;;;;5071919;28;20480;-79
2021/01/30 09:45:36;;;;;;;19.58;9.35;;;-2.40;99.90;;;;;;5070410;28;20017;-78
2021/01/30 09:48:09;;;;;;;12.18;7.70;;;-2.30;99.90;;;;;;5088203;28;20118;-78
2021/01/30 09:50:40;;;;;;;12.75;6.85;;;-2.20;99.90;;;;;;5092109;28;20028;-79
2021/01/30 09:53:12;;;;;;;14.77;8.23;;;-2.10;99.90;;;;;;5091834;28;20598;-79
2021/01/30 09:55:38;;;;;;;13.02;7.35;;;-2.00;99.90;;;;;;5091840;28;20484;-79
2021/01/30 09:58:11;;;;;;;14.50;7.82;;;-2.00;99.90;;;;;;5077172;28;20028;-79
2021/01/30 10:00:39;;;;;;;17.67;7.80;;;-1.90;99.90;;;;;;5071480;28;20025;-79
2021/01/30 10:03:07;;;;;;;15.07;7.78;;;-1.80;99.90;;;;;;5071684;28;20057;-78
2021/01/30 10:05:33;;;;;;;11.45;7.25;;;-1.80;99.90;;;;;;5070025;28;20122;-79
2021/01/30 10:08:20;;;;;;;11.38;6.65;;;-1.70;99.90;;;;;;5081063;28;20029;-79
2021/01/30 10:10:45;;;;;;;11.63;6.82;;;-1.70;99.90;;;;;;5093758;28;20168;-79
2021/01/30 10:13:14;;;;;;;15.80;8.07;;;-1.60;99.90;;;;;;5095825;28;20492;-78
2021/01/30 10:15:44;;;;;;;11.98;7.53;;;-1.60;99.90;;;;;;5095931;28;20028;-79
2021/01/30 10:18:19;;;;;;;15.85;8.13;;;-1.60;99.90;;;;;;5086037;28;20024;-79
2021/01/30 10:20:56;;;;;;;12.52;6.75;;;-1.50;99.90;;;;;;5075492;28;20027;-79
2021/01/30 10:23:40;;;;;;;14.23;8.57;;;-1.40;99.90;;;;;;5075606;28;20154;-79
2021/01/30 10:26:08;;;;;;;15.05;6.93;;;-1.30;99.90;;;;;;5075754;28;20069;-79
2021/01/30 10:28:42;;;;;;;12.88;6.80;;;-1.30;99.90;;;;;;5085173;28;20047;-79
2021/01/30 10:31:09;;;;;;;17.83;7.43;;;-1.30;99.90;;;;;;5094399;28;20032;-78
2021/01/30 10:33:36;;;;;;;12.65;6.70;;;-1.40;99.90;;;;;;5093960;28;20049;-79
2021/01/30 10:36:02;;;;;;;14.70;8.10;;;-1.40;99.90;;;;;;5095517;28;20031;-79
2021/01/30 10:38:30;;;;;;;13.15;7.20;;;-1.20;99.90;;;;;;5089098;28;20033;-79
2021/01/30 10:40:59;;;;;;;13.10;7.22;;;-1.10;99.90;;;;;;5075064;28;20028;-79
2021/01/30 10:43:35;;;;;;;17.30;7.32;;;-1.00;99.90;;;;;;5073942;28;20031;-79
2021/01/30 10:46:31;;;;;;;13.27;6.95;;;-0.90;99.90;;;;;;5074941;28;20027;-79
2021/01/30 10:49:18;;;;;;;12.77;6.90;;;-0.70;99.90;;;;;;5086206;28;20024;-79
2021/01/30 10:51:43;;;;;;;10.57;6.65;;;-0.60;99.90;;;;;;5095371;28;20027;-79
2021/01/30 10:54:21;;;;;;;10.25;6.43;;;-0.60;99.90;;;;;;5093740;28;20400;-79
2021/01/30 10:57:04;;;;;;;13.55;7.38;;;-0.50;99.90;;;;;;5095310;28;20016;-79
2021/01/30 10:59:43;;;;;;;12.23;6.20;;;-0.40;99.90;;;;;;5080384;28;20439;-79
2021/01/30 11:02:21;;;;;;;11.45;6.38;;;-0.40;99.90;;;;;;5084680;28;20051;-79
2021/01/30 11:05:05;;;;;;;20.17;7.60;;;-0.40;99.90;;;;;;5093327;28;20071;-79
2021/01/30 11:07:39;;;;;;;15.90;9.05;;;-0.40;99.90;;;;;;5095133;28;20483;-79
2021/01/30 11:10:06;;;;;;;12.75;8.00;;;-0.40;99.90;;;;;;5087519;28;20475;-79
2021/01/30 11:12:32;;;;;;;17.08;8.60;;;-0.50;99.90;;;;;;5093588;28;20476;-79
2021/01/30 11:15:18;;;;;;;16.88;9.45;;;-0.30;99.90;;;;;;5093260;28;20127;-79
2021/01/30 11:17:45;;;;;;;13.70;7.82;;;-0.30;99.90;;;;;;5090655;28;20032;-79
2021/01/30 11:20:11;;;;;;;15.05;8.68;;;-0.30;99.90;;;;;;5074417;28;20031;-78
2021/01/30 11:22:37;;;;;;;13.23;7.68;;;-0.20;99.90;;;;;;5073781;28;20029;-79
2021/01/30 11:25:10;;;;;;;15.75;6.50;;;-0.30;99.90;;;;;;5073011;28;20027;-79
2021/01/30 11:27:36;;;;;;;10.18;6.57;;;-0.20;99.90;;;;;;5074262;28;20485;-78
2021/01/30 11:30:20;;;;;;;10.75;6.20;;;-0.10;99.90;;;;;;5092761;28;20107;-79
2021/01/30 11:33:09;;;;;;;14.48;7.00;;;-0.10;99.90;;;;;;5094162;28;20030;-78
2021/01/30 11:35:40;;;;;;;14.18;7.50;;;0.00;99.90;;;;;;5094230;28;20024;-79
2021/01/30 11:38:24;;;;;;;12.75;7.20;;;0.00;99.90;;;;;;5093066;28;20024;-79
2021/01/30 11:40:52;;;;;;;13.63;7.22;;;0.00;99.90;;;;;;5072979;28;20024;-79
2021/01/30 11:43:18;;;;;;;13.45;6.85;;;0.00;99.90;;;;;;5073860;28;20021;-79
2021/01/30 11:45:45;;;;;;;13.32;7.72;;;0.10;99.90;;;;;;5073836;28;20020;-79
2021/01/30 11:48:11;;;;;;;10.05;5.95;;;0.10;99.90;;;;;;5074143;28;20024;-79
2021/01/30 11:50:37;;;;;;;16.17;7.85;;;0.10;99.90;;;;;;5074031;28;20479;-79
2021/01/30 11:53:12;;;;;;;10.00;6.22;;;0.10;99.90;;;;;;5072557;28;20056;-79
2021/01/30 11:55:39;;;;;;;15.02;7.10;;;0.10;99.90;;;;;;5073710;28;20392;-79
2021/01/30 11:58:05;;;;;;;10.52;6.88;;;0.20;99.90;;;;;;5074623;28;20503;-78
2021/01/30 12:00:31;;;;;;;10.98;6.60;;;0.20;99.90;;;;;;5093628;28;20070;-79
2021/01/30 12:02:57;;;;;;;17.63;6.70;;;0.10;99.90;;;;;;5093638;28;20016;-79
2021/01/30 12:05:23;;;;;;;10.65;6.78;;;0.00;99.90;;;;;;5093832;28;20024;-79
2021/01/30 12:07:48;;;;;;;14.75;7.63;;;0.10;99.90;;;;;;5093961;28;20028;-79
2021/01/30 12:10:14;;;;;;;14.02;8.07;;;0.20;99.90;;;;;;5091662;28;20024;-79
2021/01/30 12:12:40;;;;;;;14.82;8.95;;;0.30;99.90;;;;;;5093539;28;20035;-79
2021/01/30 12:15:09;;;;;;;17.13;7.50;;;0.40;99.90;;;;;;5092291;28;20032;-79
2021/01/30 12:17:40;;;;;;;13.38;7.00;;;0.40;99.90;;;;;;5091061;28;20028;-79
2021/01/30 12:20:09;;;;;;;13.23;7.68;;;0.60;99.90;;;;;;5073297;28;20525;-79
2021/01/30 12:22:34;;;;;;;16.40;6.97;;;0.60;99.90;;;;;;5073543;28;20109;-79
2021/01/30 12:25:01;;;;;;;18.38;8.05;;;0.50;99.90;;;;;;5073061;28;20485;-79
2021/01/30 12:27:27;;;;;;;17.08;7.43;;;0.60;99.90;;;;;;5071990;28;20031;-79
2021/01/30 12:29:53;;;;;;;10.60;6.70;;;0.70;99.90;;;;;;5090448;28;20047;-79
2021/01/30 12:32:18;;;;;;;15.05;7.43;;;0.70;99.90;;;;;;5092938;28;20028;-79
2021/01/30 12:34:44;;;;;;;13.30;7.07;;;0.80;99.90;;;;;;5092438;28;20024;-78
2021/01/30 12:37:10;;;;;;;13.80;7.10;;;1.00;99.90;;;;;;5093310;28;20120;-79
2021/01/30 12:39:36;;;;;;;14.43;7.50;;;1.10;99.90;;;;;;5091955;28;20024;-78
2021/01/30 12:42:02;;;;;;;13.15;7.35;;;0.90;99.90;;;;;;5093196;28;20094;-78
2021/01/30 12:44:27;;;;;;;12.65;7.90;;;0.90;99.90;;;;;;5091051;28;20028;-79
2021/01/30 12:46:53;;;;;;;13.68;6.95;;;0.90;99.90;;;;;;5091480;28;20024;-80
2021/01/30 12:49:19;;;;;;;15.32;7.55;;;1.00;99.90;;;;;;5076512;28;20028;-80
2021/01/30 12:51:45;;;;;;;14.55;8.40;;;1.00;99.90;;;;;;5072786;28;20032;-80
2021/01/30 12:54:10;;;;;;;18.35;6.03;;;1.20;99.90;;;;;;5072419;28;20496;-80
2021/01/30 12:56:36;;;;;;;27.50;14.75;;;1.60;99.90;;;;;;5071377;28;20029;-80
2021/01/30 12:59:03;;;;;;;31.42;16.45;;;1.80;99.90;;;;;;5080662;28;20024;-79
2021/01/30 13:01:30;;;;;;;9.52;5.82;;;2.20;99.90;;;;;;5089442;28;20031;-79
2021/01/30 13:03:56;;;;;;;10.82;6.15;;;2.30;99.90;;;;;;5113029;28;20065;-78
2021/01/30 13:06:22;;;;;;;14.15;6.28;;;2.50;99.90;;;;;;5097176;28;20553;-78
2021/01/30 13:08:49;;;;;;;11.63;7.00;;;2.70;99.90;;;;;;5091865;28;20028;-79